createdAt,value
2023-01-04T00:00:51.212Z,0.98
2023-01-04T00:03:17.871Z,1.00
2023-01-04T00:05:44.433Z,0.80
2023-01-04T00:08:10.954Z,1.25
2023-01-04T00:10:37.624Z,0.65
2023-01-04T00:13:04.461Z,0.80
2023-01-04T00:15:31.083Z,1.13
2023-01-04T00:17:57.669Z,1.13
2023-01-04T00:20:24.201Z,1.13
2023-01-04T00:22:50.778Z,0.90
2023-01-04T00:25:17.361Z,0.90
2023-01-04T00:27:43.893Z,1.02
2023-01-04T00:30:10.721Z,1.00
2023-01-04T00:32:37.294Z,1.10
2023-01-04T00:35:03.926Z,1.08
2023-01-04T00:37:31.461Z,1.00
2023-01-04T00:39:57.988Z,1.08
2023-01-04T00:42:24.567Z,0.88
2023-01-04T00:44:51.114Z,0.80
2023-01-04T00:47:17.650Z,1.33
2023-01-04T00:49:44.423Z,0.70
2023-01-04T00:52:11.042Z,0.95
2023-01-04T00:54:37.581Z,0.85
2023-01-04T00:57:05.350Z,1.10
2023-01-04T00:59:31.914Z,0.77
2023-01-04T01:01:58.645Z,0.95
2023-01-04T01:04:25.434Z,0.80
2023-01-04T01:06:52.074Z,0.82
2023-01-04T01:09:19.288Z,1.00
2023-01-04T01:11:45.922Z,1.05
2023-01-04T01:14:17.364Z,1.00
2023-01-04T01:16:55.171Z,0.77
2023-01-04T01:19:22.774Z,0.95
2023-01-04T01:21:49.344Z,1.13
2023-01-04T01:24:18.365Z,0.93
2023-01-04T01:26:45.001Z,0.60
2023-01-04T01:29:11.609Z,1.08
2023-01-04T01:31:38.255Z,1.00
2023-01-04T01:34:04.961Z,1.00
2023-01-04T01:36:31.622Z,0.93
2023-01-04T01:38:58.163Z,1.00
2023-01-04T01:41:30.009Z,0.93
2023-01-04T01:43:59.281Z,0.88
2023-01-04T01:46:43.723Z,0.80
2023-01-04T01:49:22.008Z,0.77
2023-01-04T01:51:48.553Z,0.90
2023-01-04T01:54:20.657Z,0.57
2023-01-04T01:56:48.814Z,0.80
2023-01-04T01:59:15.966Z,0.70
2023-01-04T02:01:42.724Z,0.85
2023-01-04T02:04:10.093Z,0.88
2023-01-04T02:06:40.630Z,0.70
2023-01-04T02:09:08.000Z,0.90
2023-01-04T02:11:34.577Z,0.77
2023-01-04T02:14:21.478Z,0.70
2023-01-04T02:17:06.810Z,0.70
2023-01-04T02:20:10.591Z,0.70
2023-01-04T02:23:13.379Z,0.80
2023-01-04T02:25:45.791Z,0.68
2023-01-04T02:28:25.464Z,0.60
2023-01-04T02:31:13.373Z,0.85
2023-01-04T02:33:48.071Z,0.82
2023-01-04T02:36:17.534Z,0.70
2023-01-04T02:39:13.119Z,0.60
2023-01-04T02:42:06.533Z,0.98
2023-01-04T02:44:57.423Z,0.73
2023-01-04T02:47:49.469Z,0.77
2023-01-04T02:50:56.124Z,0.60
2023-01-04T02:53:29.215Z,0.70
2023-01-04T02:56:35.634Z,0.70
2023-01-04T02:59:27.204Z,0.70
2023-01-04T03:02:35.657Z,0.70
2023-01-04T03:05:28.755Z,0.57
2023-01-04T03:08:08.504Z,0.63
2023-01-04T03:10:34.945Z,0.60
2023-01-04T03:13:21.911Z,0.60
2023-01-04T03:15:53.382Z,0.68
2023-01-04T03:18:24.426Z,0.60
2023-01-04T03:20:52.900Z,0.45
2023-01-04T03:23:40.896Z,0.77
2023-01-04T03:26:39.133Z,0.47
2023-01-04T03:29:45.906Z,0.50
2023-01-04T03:32:40.243Z,0.50
2023-01-04T03:35:28.115Z,0.70
2023-01-04T03:38:21.456Z,0.68
2023-01-04T03:41:19.251Z,0.80
2023-01-04T03:44:20.289Z,0.52
2023-01-04T03:47:12.540Z,0.60
2023-01-04T03:49:41.915Z,0.50
2023-01-04T03:52:09.499Z,0.43
2023-01-04T03:54:42.646Z,0.60
2023-01-04T03:57:09.673Z,0.47
2023-01-04T03:59:43.622Z,0.32
2023-01-04T04:02:14.321Z,0.40
2023-01-04T04:05:00.104Z,0.40
2023-01-04T04:07:44.973Z,0.50
2023-01-04T04:10:11.506Z,0.40
2023-01-04T04:12:38.037Z,0.45
2023-01-04T04:15:05.146Z,0.50
2023-01-04T04:17:31.721Z,0.40
2023-01-04T04:19:58.241Z,0.40
2023-01-04T04:22:24.825Z,0.50
2023-01-04T04:24:51.353Z,0.40
2023-01-04T04:27:17.893Z,0.43
2023-01-04T04:29:44.418Z,0.38
2023-01-04T04:32:11.109Z,0.30
2023-01-04T04:34:37.757Z,0.32
2023-01-04T04:37:04.332Z,0.40
2023-01-04T04:39:30.885Z,0.40
2023-01-04T04:41:57.409Z,0.38
2023-01-04T04:44:24.092Z,0.30
2023-01-04T04:46:50.650Z,0.50
2023-01-04T04:49:17.841Z,0.40
2023-01-04T04:51:45.373Z,0.40
2023-01-04T04:54:18.423Z,0.35
2023-01-04T04:56:45.002Z,0.30
2023-01-04T04:59:11.549Z,0.50
2023-01-04T05:01:38.224Z,0.30
2023-01-04T05:04:05.035Z,0.57
2023-01-04T05:06:31.566Z,0.45
2023-01-04T05:08:58.149Z,0.50
2023-01-04T05:11:42.939Z,0.40
2023-01-04T05:14:10.031Z,0.43
2023-01-04T05:16:36.703Z,0.30
2023-01-04T05:19:03.330Z,0.30
2023-01-04T05:21:29.933Z,0.38
2023-01-04T05:23:56.457Z,0.40
2023-01-04T05:26:23.009Z,0.30
2023-01-04T05:28:53.706Z,0.40
2023-01-04T05:31:20.907Z,0.40
2023-01-04T05:33:47.494Z,0.30
2023-01-04T05:36:14.031Z,0.32
2023-01-04T05:38:40.569Z,0.70
2023-01-04T05:41:29.870Z,0.43
2023-01-04T05:43:56.605Z,0.45
2023-01-04T05:46:23.451Z,0.30
2023-01-04T05:48:50.173Z,0.32
2023-01-04T05:51:16.756Z,0.50
2023-01-04T05:53:43.297Z,0.38
2023-01-04T05:56:09.826Z,0.50
2023-01-04T05:58:36.379Z,0.50
2023-01-04T06:01:02.939Z,0.40
2023-01-04T06:03:29.579Z,0.40
2023-01-04T06:05:56.173Z,0.40
2023-01-04T06:08:22.696Z,0.40
2023-01-04T06:10:55.240Z,0.40
2023-01-04T06:13:21.960Z,0.47
2023-01-04T06:15:48.504Z,0.20
2023-01-04T06:18:15.092Z,0.40
2023-01-04T06:20:43.394Z,0.40
2023-01-04T06:23:09.974Z,0.40
2023-01-04T06:25:37.446Z,0.57
2023-01-04T06:28:03.965Z,0.30
2023-01-04T06:30:30.575Z,0.20
2023-01-04T06:32:57.153Z,0.38
2023-01-04T06:35:23.675Z,0.40
2023-01-04T06:37:50.208Z,0.40
2023-01-04T06:40:16.765Z,0.52
2023-01-04T06:42:46.236Z,0.47
2023-01-04T06:45:14.329Z,0.60
2023-01-04T06:47:41.055Z,0.50
2023-01-04T06:50:08.021Z,0.43
2023-01-04T06:52:34.540Z,0.38
2023-01-04T06:55:01.090Z,0.52
2023-01-04T06:57:27.850Z,0.30
2023-01-04T06:59:54.458Z,0.35
2023-01-04T07:02:21.139Z,0.45
2023-01-04T07:04:47.927Z,0.40
2023-01-04T07:07:14.750Z,0.40
2023-01-04T07:09:41.326Z,0.40
2023-01-04T07:12:07.874Z,0.70
2023-01-04T07:14:34.470Z,0.65
2023-01-04T07:17:01.077Z,0.55
2023-01-04T07:19:27.610Z,0.68
2023-01-04T07:21:54.210Z,0.60
2023-01-04T07:24:26.194Z,0.68
2023-01-04T07:26:56.495Z,0.60
2023-01-04T07:29:23.099Z,0.77
2023-01-04T07:31:52.027Z,0.80
2023-01-04T07:34:21.155Z,0.68
2023-01-04T07:36:48.695Z,0.80
2023-01-04T07:39:16.082Z,0.55
2023-01-04T07:41:42.826Z,0.85
2023-01-04T07:44:10.310Z,0.70
2023-01-04T07:46:36.973Z,0.98
2023-01-04T07:49:03.952Z,0.60
2023-01-04T07:51:32.061Z,0.70
2023-01-04T07:53:58.882Z,0.80
2023-01-04T07:56:25.414Z,0.60
2023-01-04T07:58:56.972Z,0.90
2023-01-04T08:01:25.361Z,0.95
2023-01-04T08:03:53.067Z,1.10
2023-01-04T08:06:21.284Z,0.98
2023-01-04T08:08:48.037Z,0.60
2023-01-04T08:11:16.969Z,0.80
2023-01-04T08:13:43.590Z,0.90
2023-01-04T08:16:20.817Z,0.50
2023-01-04T08:18:47.755Z,0.90
2023-01-04T08:21:14.393Z,0.90
2023-01-04T08:23:40.944Z,1.10
2023-01-04T08:26:13.798Z,0.75
2023-01-04T08:28:40.651Z,0.70
2023-01-04T08:31:12.965Z,0.80
2023-01-04T08:33:40.577Z,0.90
2023-01-04T08:36:25.951Z,1.13
2023-01-04T08:39:01.727Z,0.80
2023-01-04T08:41:56.856Z,1.10
2023-01-04T08:44:17.968Z,0.90
2023-01-04T08:46:45.625Z,1.15
2023-01-04T08:49:12.405Z,1.30
2023-01-04T08:51:38.980Z,1.17
2023-01-04T08:54:05.545Z,0.90
2023-01-04T08:56:32.152Z,1.10
2023-01-04T08:58:58.718Z,1.10
2023-01-04T09:01:25.378Z,1.10
2023-01-04T09:03:52.032Z,0.77
2023-01-04T09:06:18.614Z,1.05
2023-01-04T09:08:45.151Z,1.00
2023-01-04T09:11:14.516Z,0.95
2023-01-04T09:13:41.532Z,0.90
2023-01-04T09:16:10.925Z,1.02
2023-01-04T09:18:37.631Z,1.05
2023-01-04T09:21:08.697Z,0.77
2023-01-04T09:23:36.764Z,1.13
2023-01-04T09:26:11.925Z,1.25
2023-01-04T09:28:38.998Z,0.65
2023-01-04T09:31:07.644Z,0.90
2023-01-04T09:34:11.484Z,0.90
2023-01-04T09:36:21.738Z,0.80
2023-01-04T09:38:49.243Z,0.65
2023-01-04T09:41:31.122Z,0.98
2023-01-04T09:44:05.006Z,0.82
2023-01-04T09:46:54.505Z,1.02
2023-01-04T09:49:32.444Z,0.90
2023-01-04T09:52:11.015Z,1.10
2023-01-04T09:54:46.697Z,1.23
2023-01-04T09:57:20.205Z,1.55
2023-01-04T10:02:20.040Z,0.80
2023-01-04T10:04:49.405Z,1.50
2023-01-04T10:07:26.695Z,1.40
2023-01-04T10:09:53.389Z,1.88
2023-01-04T10:12:38.195Z,3.00
2023-01-04T10:15:43.391Z,2.83
2023-01-04T10:21:34.315Z,3.67
2023-01-04T10:24:14.046Z,3.30
2023-01-04T10:26:46.214Z,2.88
2023-01-04T10:29:40.166Z,3.35
2023-01-04T10:34:42.648Z,2.83
2023-01-04T10:37:21.110Z,2.83
2023-01-04T10:39:52.268Z,3.05
2023-01-04T10:42:32.352Z,3.25
2023-01-04T10:45:09.859Z,2.72
2023-01-04T10:48:10.192Z,3.08
2023-01-04T10:50:44.867Z,2.33
2023-01-04T10:53:20.425Z,3.10
2023-01-04T10:56:25.088Z,2.60
2023-01-04T10:59:11.473Z,2.13
2023-01-04T11:01:42.620Z,1.95
2023-01-04T11:04:15.942Z,2.00
2023-01-04T11:06:49.138Z,2.72
2023-01-04T11:09:24.782Z,2.17
2023-01-04T11:11:53.664Z,2.45
2023-01-04T11:14:20.248Z,2.30
2023-01-04T11:16:48.595Z,2.50
2023-01-04T11:19:15.342Z,1.92
2023-01-04T11:22:12.186Z,2.15
2023-01-04T11:24:54.091Z,1.60
2023-01-04T11:27:31.670Z,1.85
2023-01-04T11:30:05.046Z,2.25
2023-01-04T11:32:40.124Z,1.77
2023-01-04T11:35:06.941Z,1.90
2023-01-04T11:37:38.575Z,2.00
2023-01-04T11:40:17.113Z,1.67
2023-01-04T11:42:48.601Z,1.95
2023-01-04T11:45:27.004Z,2.20
2023-01-04T11:47:55.995Z,2.03
2023-01-04T11:50:43.704Z,2.10
2023-01-04T11:53:31.433Z,2.15
2023-01-04T11:56:10.865Z,2.13
2023-01-04T11:58:37.678Z,2.05
2023-01-04T12:01:04.355Z,2.17
2023-01-04T12:03:35.051Z,1.88
2023-01-04T12:06:02.590Z,2.58
2023-01-04T12:08:35.757Z,1.88
2023-01-04T12:11:04.912Z,1.88
2023-01-04T12:13:33.066Z,2.17
2023-01-04T12:16:20.327Z,2.28
2023-01-04T12:18:46.970Z,2.40
2023-01-04T12:21:20.634Z,2.03
2023-01-04T12:23:47.484Z,2.45
2023-01-04T12:26:14.284Z,2.03
2023-01-04T12:28:44.320Z,2.33
2023-01-04T12:31:20.418Z,2.22
2023-01-04T12:33:56.381Z,2.13
2023-01-04T12:36:37.840Z,2.67
2023-01-04T12:39:15.920Z,2.40
2023-01-04T12:42:00.531Z,2.45
2023-01-04T12:44:36.285Z,2.42
2023-01-04T12:47:33.424Z,2.70
2023-01-04T12:50:03.035Z,2.38
2023-01-04T12:52:34.767Z,2.50
2023-01-04T12:55:47.878Z,2.30
2023-01-04T12:59:23.745Z,2.55
2023-01-04T13:01:28.799Z,2.17
2023-01-04T13:04:04.666Z,2.53
2023-01-04T13:06:35.616Z,2.17
2023-01-04T13:09:02.256Z,2.50
2023-01-04T13:12:00.910Z,2.60
2023-01-04T13:14:48.349Z,2.05
2023-01-04T13:17:17.992Z,2.28
2023-01-04T13:19:45.553Z,2.20
2023-01-04T13:22:29.171Z,1.98
2023-01-04T13:24:58.067Z,2.05
2023-01-04T13:27:28.379Z,2.45
2023-01-04T13:29:55.135Z,1.88
2023-01-04T13:32:23.828Z,1.88
2023-01-04T13:35:00.352Z,1.80
2023-01-04T13:37:36.137Z,1.73
2023-01-04T13:40:24.591Z,1.98
2023-01-04T13:43:09.311Z,1.83
2023-01-04T13:46:27.315Z,1.80
2023-01-04T13:48:59.532Z,2.17
2023-01-04T13:51:36.959Z,1.65
2023-01-04T13:54:06.674Z,2.10
2023-01-04T13:56:34.278Z,1.80
2023-01-04T13:59:01.336Z,2.15
2023-01-04T14:01:33.981Z,1.60
2023-01-04T14:04:02.849Z,2.27
2023-01-04T14:06:31.828Z,1.88
2023-01-04T14:09:03.852Z,2.08
2023-01-04T14:12:06.286Z,2.00
2023-01-04T14:14:35.548Z,2.10
2023-01-04T14:17:18.403Z,2.17
2023-01-04T14:19:55.183Z,1.97
2023-01-04T14:22:27.764Z,2.03
2023-01-04T14:25:12.473Z,1.87
2023-01-04T14:27:40.959Z,2.40
2023-01-04T14:30:19.476Z,1.75
2023-01-04T14:33:02.946Z,2.05
2023-01-04T14:35:30.342Z,2.35
2023-01-04T14:38:04.128Z,2.30
2023-01-04T14:40:33.656Z,2.13
2023-01-04T14:43:00.262Z,2.38
2023-01-04T14:45:26.829Z,2.20
2023-01-04T14:47:53.355Z,2.05
2023-01-04T14:50:20.347Z,2.45
2023-01-04T14:52:51.555Z,1.77
2023-01-04T14:55:18.315Z,2.13
2023-01-04T14:57:45.419Z,2.42
2023-01-04T15:00:19.578Z,2.30
2023-01-04T15:02:50.344Z,2.45
2023-01-04T15:05:20.197Z,2.53
2023-01-04T15:07:47.027Z,2.58
2023-01-04T15:10:23.061Z,2.50
2023-01-04T15:12:50.160Z,2.20
2023-01-04T15:15:16.761Z,2.47
2023-01-04T15:17:43.334Z,2.30
2023-01-04T15:20:10.098Z,2.78
2023-01-04T15:22:36.748Z,2.38
2023-01-04T15:25:03.532Z,2.22
2023-01-04T15:27:32.641Z,2.22
2023-01-04T15:30:01.045Z,2.85
2023-01-04T15:32:27.610Z,2.38
2023-01-04T15:34:54.128Z,2.47
2023-01-04T15:37:24.237Z,2.95
2023-01-04T15:39:54.143Z,2.40
2023-01-04T15:42:41.602Z,2.50
2023-01-04T15:45:08.480Z,2.72
2023-01-04T15:47:35.118Z,2.60
2023-01-04T15:50:01.692Z,2.90
2023-01-04T15:52:28.294Z,2.78
2023-01-04T15:54:54.842Z,2.72
2023-01-04T15:57:21.425Z,2.08
2023-01-04T15:59:48.876Z,2.63
2023-01-04T16:02:15.694Z,2.90
2023-01-04T16:04:42.339Z,2.58
2023-01-04T16:07:08.889Z,2.58
2023-01-04T16:09:36.967Z,2.95
2023-01-04T16:12:23.077Z,2.63
2023-01-04T16:14:49.622Z,2.67
2023-01-04T16:17:16.282Z,2.90
2023-01-04T16:19:42.907Z,3.00
2023-01-04T16:22:09.482Z,2.75
2023-01-04T16:27:22.666Z,2.50
2023-01-04T16:29:52.721Z,2.25
2023-01-04T16:32:19.674Z,2.33
2023-01-04T16:34:46.290Z,2.90
2023-01-04T16:37:12.862Z,3.08
2023-01-04T16:42:25.922Z,2.45
2023-01-04T16:44:52.600Z,2.50
2023-01-04T16:47:19.266Z,2.38
2023-01-04T16:49:50.664Z,2.67
2023-01-04T16:52:17.191Z,2.42
2023-01-04T16:54:43.760Z,2.45
2023-01-04T16:57:10.328Z,2.20
2023-01-04T16:59:36.871Z,2.72
2023-01-04T17:02:03.480Z,2.50
2023-01-04T17:04:30.108Z,2.88
2023-01-04T17:06:58.235Z,2.78
2023-01-04T17:09:24.909Z,2.40
2023-01-04T17:14:44.369Z,2.40
2023-01-04T17:17:10.995Z,2.55
2023-01-04T17:19:37.648Z,2.75
2023-01-04T17:22:04.175Z,2.72
2023-01-04T17:24:30.731Z,2.50
2023-01-04T17:26:57.304Z,2.55
2023-01-04T17:29:23.918Z,2.65
2023-01-04T17:31:50.519Z,2.67
2023-01-04T17:34:22.507Z,2.80
2023-01-04T17:36:50.059Z,3.22
2023-01-04T17:39:16.641Z,2.60
2023-01-04T17:41:43.391Z,3.00
2023-01-04T17:44:10.530Z,3.13
2023-01-04T17:46:37.923Z,3.00
2023-01-04T17:49:22.148Z,2.97
2023-01-04T17:51:50.523Z,2.42
2023-01-04T17:54:17.332Z,2.85
2023-01-04T17:56:43.921Z,2.55
2023-01-04T17:59:11.858Z,2.92
2023-01-04T18:01:38.508Z,2.80
2023-01-04T18:04:05.259Z,3.03
2023-01-04T18:06:34.024Z,2.72
2023-01-04T18:09:01.479Z,2.40
2023-01-04T18:11:28.173Z,2.53
2023-01-04T18:13:54.785Z,2.60
2023-01-04T18:16:26.530Z,2.47
2023-01-04T18:18:58.503Z,2.90
2023-01-04T18:21:28.586Z,2.60
2023-01-04T18:27:19.718Z,2.40
2023-01-04T18:29:33.642Z,2.78
2023-01-04T18:32:00.280Z,2.25
2023-01-04T18:34:27.150Z,2.42
2023-01-04T18:36:54.066Z,2.40
2023-01-04T18:39:20.867Z,2.70
2023-01-04T18:41:47.529Z,2.70
2023-01-04T18:47:02.268Z,2.80
2023-01-04T18:49:28.828Z,2.33
2023-01-04T18:51:55.389Z,3.22
2023-01-04T18:54:22.183Z,2.45
2023-01-04T18:56:48.866Z,2.72
2023-01-04T18:59:17.195Z,2.83
2023-01-04T19:01:45.109Z,2.53
2023-01-04T19:04:12.713Z,3.03
2023-01-04T19:06:40.727Z,2.78
2023-01-04T19:09:07.675Z,3.15
2023-01-04T19:11:34.926Z,2.85
2023-01-04T19:14:02.223Z,2.60
2023-01-04T19:16:31.208Z,2.67
2023-01-04T19:19:01.469Z,2.90
2023-01-04T19:21:28.711Z,2.97
2023-01-04T19:23:55.563Z,3.33
2023-01-04T19:26:22.978Z,2.88
2023-01-04T19:28:50.106Z,3.10
2023-01-04T19:31:18.293Z,2.40
2023-01-04T19:33:45.434Z,2.90
2023-01-04T19:36:13.837Z,2.45
2023-01-04T19:38:40.807Z,3.50
2023-01-04T19:41:08.494Z,3.15
2023-01-04T19:43:35.486Z,2.75
2023-01-04T19:46:02.084Z,2.65
2023-01-04T19:48:28.781Z,3.25
2023-01-04T19:51:09.109Z,3.03
2023-01-04T19:53:36.288Z,2.60
2023-01-04T19:56:02.845Z,3.53
2023-01-04T19:58:29.625Z,2.95
2023-01-04T20:00:56.330Z,2.78
2023-01-04T20:03:25.156Z,2.58
2023-01-04T20:05:52.074Z,3.13
2023-01-04T20:08:18.774Z,2.60
2023-01-04T20:10:45.309Z,3.00
2023-01-04T20:13:11.984Z,3.13
2023-01-04T20:15:39.473Z,2.85
2023-01-04T20:18:13.333Z,2.80
2023-01-04T20:20:44.503Z,2.63
2023-01-04T20:23:11.605Z,2.40
2023-01-04T20:25:42.673Z,2.85
2023-01-04T20:28:09.222Z,3.08
2023-01-04T20:30:35.853Z,2.83
2023-01-04T20:33:02.587Z,2.60
2023-01-04T20:35:29.214Z,3.05
2023-01-04T20:37:57.690Z,3.03
2023-01-04T20:40:27.950Z,2.65
2023-01-04T20:43:13.181Z,2.85
2023-01-04T20:45:46.241Z,2.70
2023-01-04T20:48:13.613Z,2.60
2023-01-04T20:50:40.579Z,2.47
2023-01-04T20:53:07.709Z,2.70
2023-01-04T20:55:41.121Z,2.85
2023-01-04T21:00:37.126Z,3.17
2023-01-04T21:03:08.272Z,2.97
2023-01-04T21:05:39.634Z,2.70
2023-01-04T21:08:06.868Z,2.92
2023-01-04T21:10:33.942Z,3.42
2023-01-04T21:13:00.494Z,3.40
2023-01-04T21:15:27.581Z,2.60
2023-01-04T21:17:54.162Z,2.85
2023-01-04T21:20:21.640Z,2.75
2023-01-04T21:22:48.263Z,2.53
2023-01-04T21:25:14.887Z,3.58
2023-01-04T21:28:22.869Z,3.22
2023-01-04T21:30:50.021Z,3.33
2023-01-04T21:33:17.348Z,3.03
2023-01-04T21:35:44.006Z,2.80
2023-01-04T21:38:11.441Z,3.13
2023-01-04T21:40:39.968Z,3.33
2023-01-04T21:43:06.930Z,2.97
2023-01-04T21:45:37.280Z,2.90
2023-01-04T21:48:03.979Z,2.90
2023-01-04T21:50:30.737Z,2.88
2023-01-04T21:52:57.885Z,2.92
2023-01-04T21:55:28.177Z,2.85
2023-01-04T21:57:57.558Z,3.67
2023-01-04T22:00:24.098Z,2.90
2023-01-04T22:02:50.872Z,3.33
2023-01-04T22:05:17.545Z,2.97
2023-01-04T22:07:44.147Z,3.17
2023-01-04T22:10:10.712Z,2.95
2023-01-04T22:12:37.337Z,3.00
2023-01-04T22:15:04.115Z,2.65
2023-01-04T22:17:30.680Z,2.58
2023-01-04T22:19:57.244Z,2.60
2023-01-04T22:22:23.790Z,3.05
2023-01-04T22:24:51.623Z,3.10
2023-01-04T22:27:18.293Z,2.72
2023-01-04T22:29:44.839Z,2.50
2023-01-04T22:32:11.365Z,2.38
2023-01-04T22:34:37.908Z,2.55
2023-01-04T22:37:04.515Z,2.40
2023-01-04T22:39:31.065Z,2.90
2023-01-04T22:41:57.615Z,2.35
2023-01-04T22:44:24.277Z,2.58
2023-01-04T22:46:50.824Z,2.72
2023-01-04T22:49:17.448Z,3.50
2023-01-04T22:51:43.992Z,3.00
2023-01-04T22:54:10.564Z,2.38
2023-01-04T22:56:37.195Z,3.13
2023-01-04T22:59:03.842Z,3.35
2023-01-04T23:01:32.114Z,2.85
2023-01-04T23:04:00.025Z,2.45
2023-01-04T23:06:27.959Z,3.08
2023-01-04T23:09:05.293Z,2.58
2023-01-04T23:11:33.589Z,3.15
2023-01-04T23:14:02.624Z,2.60
2023-01-04T23:16:32.674Z,3.17
2023-01-04T23:19:01.273Z,2.42
2023-01-04T23:21:27.938Z,2.58
2023-01-04T23:23:54.482Z,2.80
2023-01-04T23:26:23.613Z,2.38
2023-01-04T23:28:50.726Z,2.17
2023-01-04T23:31:20.146Z,3.00
2023-01-04T23:33:47.172Z,3.05
2023-01-04T23:36:22.373Z,2.83
2023-01-04T23:38:51.849Z,2.83
2023-01-04T23:41:18.992Z,2.50
2023-01-04T23:43:45.842Z,2.33
2023-01-04T23:46:17.003Z,2.80
2023-01-04T23:48:44.200Z,2.33
2023-01-04T23:51:12.783Z,2.67
2023-01-04T23:53:39.667Z,2.50
2023-01-04T23:56:09.387Z,2.55
2023-01-04T23:58:35.935Z,2.67
